createdAt,value
2018-07-01T00:01:27.513Z,50.70
2018-07-01T00:03:56.626Z,50.70
2018-07-01T00:08:54.449Z,50.70
2018-07-01T00:11:23.507Z,51.20
2018-07-01T00:13:52.550Z,50.60
2018-07-01T00:16:21.883Z,50.60
2018-07-01T00:18:50.775Z,50.50
2018-07-01T00:21:19.663Z,50.40
2018-07-01T00:23:48.770Z,50.50
2018-07-01T00:26:17.854Z,50.50
2018-07-01T00:28:46.815Z,50.50
2018-07-01T00:31:15.850Z,50.50
2018-07-01T00:33:44.924Z,50.60
2018-07-01T00:36:13.966Z,50.60
2018-07-01T00:38:42.862Z,50.50
2018-07-01T00:41:11.878Z,50.60
2018-07-01T00:43:40.988Z,50.60
2018-07-01T00:46:10.259Z,50.60
2018-07-01T00:48:39.446Z,50.60
2018-07-01T00:51:08.724Z,50.60
2018-07-01T00:53:37.699Z,50.60
2018-07-01T00:56:07.354Z,50.70
2018-07-01T00:58:36.478Z,50.80
2018-07-01T01:01:05.470Z,50.90
2018-07-01T01:03:34.569Z,51.00
2018-07-01T01:08:32.170Z,50.80
2018-07-01T01:11:01.188Z,51.00
2018-07-01T01:13:30.250Z,51.10
2018-07-01T01:15:59.218Z,51.10
2018-07-01T01:18:28.248Z,51.10
2018-07-01T01:20:57.106Z,51.20
2018-07-01T01:23:26.019Z,51.20
2018-07-01T01:25:55.250Z,51.10
2018-07-01T01:28:24.386Z,51.10
2018-07-01T01:30:53.449Z,51.10
2018-07-01T01:33:22.495Z,51.10
2018-07-01T01:35:51.450Z,51.00
2018-07-01T01:38:21.268Z,51.10
2018-07-01T01:40:54.394Z,51.10
2018-07-01T01:43:59.646Z,51.10
2018-07-01T01:46:36.108Z,51.20
2018-07-01T01:49:11.033Z,51.30
2018-07-01T01:51:45.122Z,51.30
2018-07-01T01:54:24.254Z,51.40
2018-07-01T01:56:55.226Z,51.50
2018-07-01T01:59:35.964Z,51.40
2018-07-01T02:06:43.100Z,51.40
2018-07-01T02:09:15.466Z,51.40
2018-07-01T02:11:46.822Z,51.50
2018-07-01T02:14:21.299Z,51.50
2018-07-01T02:16:52.962Z,51.60
2018-07-01T02:19:21.862Z,52.20
2018-07-01T02:21:51.502Z,51.60
2018-07-01T02:24:26.382Z,51.60
2018-07-01T02:26:55.298Z,51.70
2018-07-01T02:29:24.194Z,51.70
2018-07-01T02:31:53.162Z,51.70
2018-07-01T02:36:50.669Z,51.70
2018-07-01T02:39:19.607Z,51.70
2018-07-01T02:41:48.582Z,51.60
2018-07-01T02:44:17.578Z,51.70
2018-07-01T02:46:46.702Z,51.80
2018-07-01T02:49:16.406Z,51.80
2018-07-01T02:54:14.006Z,51.90
2018-07-01T02:56:43.002Z,51.80
2018-07-01T02:59:12.001Z,51.90
2018-07-01T03:01:40.976Z,51.90
2018-07-01T03:04:09.874Z,51.80
2018-07-01T03:06:39.404Z,51.80
2018-07-01T03:09:10.354Z,51.80
2018-07-01T03:11:39.392Z,51.80
2018-07-01T03:14:08.410Z,51.80
2018-07-01T03:16:37.310Z,51.80
2018-07-01T03:19:06.231Z,51.80
2018-07-01T03:21:35.142Z,51.90
2018-07-01T03:24:04.114Z,51.90
2018-07-01T03:26:33.146Z,52.00
2018-07-01T03:29:02.098Z,52.00
2018-07-01T03:31:31.278Z,52.00
2018-07-01T03:34:00.298Z,52.00
2018-07-01T03:36:29.307Z,51.90
2018-07-01T03:38:58.455Z,51.90
2018-07-01T03:41:27.377Z,51.90
2018-07-01T03:43:56.276Z,51.90
2018-07-01T03:46:25.173Z,51.90
2018-07-01T03:51:22.809Z,51.90
2018-07-01T03:53:52.031Z,51.80
2018-07-01T03:56:21.070Z,51.80
2018-07-01T03:58:50.319Z,52.30
2018-07-01T04:01:19.323Z,51.50
2018-07-01T04:03:48.332Z,51.20
2018-07-01T04:06:17.492Z,50.90
2018-07-01T04:08:46.566Z,50.70
2018-07-01T04:11:15.528Z,50.50
2018-07-01T04:13:44.481Z,50.10
2018-07-01T04:16:13.420Z,49.80
2018-07-01T04:18:42.402Z,49.70
2018-07-01T04:21:11.546Z,49.70
2018-07-01T04:23:40.590Z,49.40
2018-07-01T04:26:09.581Z,49.40
2018-07-01T04:28:38.678Z,49.20
2018-07-01T04:31:08.065Z,49.20
2018-07-01T04:33:36.934Z,49.10
2018-07-01T04:36:06.103Z,49.00
2018-07-01T04:38:34.966Z,48.90
2018-07-01T04:41:03.924Z,48.70
2018-07-01T04:43:32.905Z,48.70
2018-07-01T04:46:01.987Z,48.70
2018-07-01T04:48:30.944Z,48.50
2018-07-01T04:50:59.867Z,48.50
2018-07-01T04:53:28.816Z,48.40
2018-07-01T04:55:57.883Z,48.10
2018-07-01T04:58:26.825Z,48.00
2018-07-01T05:00:55.716Z,47.80
2018-07-01T05:03:24.607Z,47.70
2018-07-01T05:05:53.584Z,47.40
2018-07-01T05:08:22.521Z,47.30
2018-07-01T05:10:53.156Z,47.40
2018-07-01T05:13:22.012Z,47.30
2018-07-01T05:15:50.939Z,47.30
2018-07-01T05:18:19.833Z,47.50
2018-07-01T05:20:48.972Z,47.40
2018-07-01T05:23:17.899Z,47.30
2018-07-01T05:25:46.884Z,47.30
2018-07-01T05:28:15.818Z,47.10
2018-07-01T05:30:44.722Z,47.20
2018-07-01T05:33:13.621Z,47.30
2018-07-01T05:35:42.507Z,47.50
2018-07-01T05:38:11.574Z,47.50
2018-07-01T05:40:40.462Z,47.50
2018-07-01T05:43:09.476Z,47.40
2018-07-01T05:45:38.507Z,47.30
2018-07-01T05:48:07.480Z,47.40
2018-07-01T05:50:36.388Z,47.10
2018-07-01T05:53:05.575Z,47.10
2018-07-01T05:55:34.586Z,47.50
2018-07-01T05:58:03.597Z,47.60
2018-07-01T06:00:32.622Z,47.30
2018-07-01T06:03:01.647Z,47.40
2018-07-01T06:05:30.584Z,47.50
2018-07-01T06:07:59.570Z,47.40
2018-07-01T06:10:28.520Z,47.70
2018-07-01T06:12:57.509Z,47.60
2018-07-01T06:15:26.399Z,47.60
2018-07-01T06:17:55.527Z,47.30
2018-07-01T06:20:24.738Z,47.40
2018-07-01T06:22:53.644Z,47.50
2018-07-01T06:25:22.510Z,47.50
2018-07-01T06:27:51.502Z,47.50
2018-07-01T06:30:20.434Z,47.80
2018-07-01T06:32:49.346Z,47.90
2018-07-01T06:35:18.202Z,47.90
2018-07-01T06:37:47.098Z,48.00
2018-07-01T06:40:16.031Z,48.00
2018-07-01T06:42:45.087Z,47.80
2018-07-01T06:45:14.035Z,48.50
2018-07-01T06:47:42.970Z,47.80
2018-07-01T06:50:11.938Z,47.90
2018-07-01T06:52:40.963Z,47.90
2018-07-01T06:55:09.892Z,47.60
2018-07-01T06:57:38.813Z,48.20
2018-07-01T07:00:07.732Z,47.50
2018-07-01T07:02:36.770Z,47.40
2018-07-01T07:05:05.940Z,47.20
2018-07-01T07:07:34.982Z,47.30
2018-07-01T07:10:04.290Z,47.20
2018-07-01T07:12:33.294Z,48.40
2018-07-01T07:15:02.311Z,47.50
2018-07-01T07:17:31.199Z,47.50
2018-07-01T07:20:00.128Z,47.30
2018-07-01T07:22:29.078Z,47.20
2018-07-01T07:24:58.014Z,47.20
2018-07-01T07:27:27.039Z,47.10
2018-07-01T07:29:56.026Z,46.90
2018-07-01T07:32:24.910Z,46.80
2018-07-01T07:34:53.786Z,47.00
2018-07-01T07:37:22.703Z,47.10
2018-07-01T07:39:51.622Z,47.20
2018-07-01T07:42:20.491Z,47.30
2018-07-01T07:44:49.536Z,47.40
2018-07-01T07:47:18.436Z,47.00
2018-07-01T07:49:47.327Z,47.10
2018-07-01T07:52:16.276Z,47.10
2018-07-01T07:54:45.146Z,46.90
2018-07-01T07:57:14.168Z,46.70
2018-07-01T07:59:44.181Z,46.50
2018-07-01T08:02:13.219Z,46.60
2018-07-01T08:04:42.102Z,46.50
2018-07-01T08:07:11.539Z,46.70
2018-07-01T08:09:40.478Z,46.60
2018-07-01T08:12:09.394Z,45.90
2018-07-01T08:14:38.269Z,45.60
2018-07-01T08:17:07.301Z,45.30
2018-07-01T08:19:36.387Z,45.30
2018-07-01T08:22:05.479Z,45.30
2018-07-01T08:24:34.293Z,45.30
2018-07-01T08:27:03.218Z,45.10
2018-07-01T08:29:32.333Z,44.80
2018-07-01T08:32:02.079Z,45.10
2018-07-01T08:34:31.063Z,44.90
2018-07-01T08:36:59.998Z,45.10
2018-07-01T08:39:28.926Z,44.90
2018-07-01T08:42:31.386Z,44.80
2018-07-01T08:45:01.403Z,44.80
2018-07-01T08:47:30.652Z,45.20
2018-07-01T08:49:59.534Z,45.30
2018-07-01T08:52:28.624Z,45.30
2018-07-01T08:54:57.502Z,44.80
2018-07-01T08:57:26.387Z,45.60
2018-07-01T08:59:55.265Z,46.20
2018-07-01T09:02:24.177Z,46.30
2018-07-01T09:04:53.210Z,46.50
2018-07-01T09:09:51.613Z,46.70
2018-07-01T09:12:20.594Z,47.40
2018-07-01T09:14:49.814Z,47.00
2018-07-01T09:17:18.893Z,47.00
2018-07-01T09:19:47.891Z,46.70
2018-07-01T09:22:17.024Z,46.90
2018-07-01T09:24:46.039Z,46.90
2018-07-01T09:27:14.970Z,47.30
2018-07-01T09:32:17.946Z,47.30
2018-07-01T09:34:46.860Z,47.30
2018-07-01T09:37:15.686Z,47.20
2018-07-01T09:39:44.510Z,47.10
2018-07-01T09:42:13.490Z,47.40
2018-07-01T09:44:42.372Z,46.20
2018-07-01T09:47:11.334Z,45.40
2018-07-01T09:49:40.206Z,46.40
2018-07-01T09:52:09.099Z,46.80
2018-07-01T09:54:38.052Z,45.90
2018-07-01T09:57:06.971Z,46.00
2018-07-01T09:59:35.974Z,46.20
2018-07-01T10:02:04.930Z,45.90
2018-07-01T10:04:33.966Z,46.40
2018-07-01T10:07:03.244Z,48.80
2018-07-01T10:09:35.155Z,49.00
2018-07-01T10:12:04.056Z,48.60
2018-07-01T10:14:32.908Z,48.80
2018-07-01T10:17:01.751Z,48.40
2018-07-01T10:19:30.578Z,48.80
2018-07-01T10:21:59.692Z,49.10
2018-07-01T10:24:28.550Z,49.20
2018-07-01T10:26:57.406Z,49.50
2018-07-01T10:29:26.292Z,49.20
2018-07-01T10:31:55.120Z,49.10
2018-07-01T10:34:24.006Z,49.30
2018-07-01T10:36:52.956Z,49.40
2018-07-01T10:39:21.815Z,49.60
2018-07-01T10:41:50.649Z,50.40
2018-07-01T10:44:19.482Z,50.00
2018-07-01T10:46:48.344Z,50.00
2018-07-01T10:49:17.182Z,50.10
2018-07-01T10:51:46.310Z,50.90
2018-07-01T10:54:15.108Z,50.20
2018-07-01T10:59:12.446Z,50.20
2018-07-01T11:01:41.304Z,50.40
2018-07-01T11:04:10.159Z,50.30
2018-07-01T11:06:38.990Z,50.50
2018-07-01T11:09:09.630Z,50.50
2018-07-01T11:11:38.544Z,50.50
2018-07-01T11:14:07.374Z,50.50
2018-07-01T11:16:36.222Z,50.50
2018-07-01T11:19:05.129Z,50.70
2018-07-01T11:21:33.993Z,50.70
2018-07-01T11:24:02.839Z,50.70
2018-07-01T11:26:31.747Z,50.70
2018-07-01T11:29:00.594Z,50.80
2018-07-01T11:31:29.430Z,51.10
2018-07-01T11:33:58.330Z,51.10
2018-07-01T11:36:27.186Z,51.10
2018-07-01T11:38:56.030Z,51.10
2018-07-01T11:41:24.902Z,51.20
2018-07-01T11:43:53.771Z,51.40
2018-07-01T11:46:22.707Z,51.30
2018-07-01T11:51:20.078Z,51.30
2018-07-01T11:53:48.926Z,51.30
2018-07-01T11:56:17.772Z,51.30
2018-07-01T11:58:46.640Z,51.40
2018-07-01T12:01:15.580Z,51.50
2018-07-01T12:03:44.434Z,51.60
2018-07-01T12:06:13.267Z,51.60
2018-07-01T12:08:42.187Z,51.50
2018-07-01T12:11:11.011Z,51.70
2018-07-01T12:13:39.847Z,51.60
2018-07-01T12:16:08.706Z,51.60
2018-07-01T12:18:37.530Z,51.60
2018-07-01T12:21:06.355Z,51.70
2018-07-01T12:23:35.247Z,51.80
2018-07-01T12:26:04.174Z,51.90
2018-07-01T12:28:33.058Z,51.80
2018-07-01T12:31:02.003Z,51.90
2018-07-01T12:33:30.822Z,51.90
2018-07-01T12:35:59.674Z,51.90
2018-07-01T12:38:28.516Z,52.00
2018-07-01T12:40:57.392Z,52.00
2018-07-01T12:43:26.226Z,52.00
2018-07-01T12:45:55.066Z,51.90
2018-07-01T12:48:23.922Z,51.90
2018-07-01T12:50:52.806Z,52.00
2018-07-01T12:53:21.687Z,52.10
2018-07-01T12:55:50.527Z,52.10
2018-07-01T12:58:19.356Z,52.70
2018-07-01T13:00:48.205Z,52.10
2018-07-01T13:03:17.114Z,52.10
2018-07-01T13:05:45.952Z,52.10
2018-07-01T13:08:14.834Z,52.20
2018-07-01T13:13:12.179Z,52.20
2018-07-01T13:15:41.086Z,52.10
2018-07-01T13:18:09.894Z,52.10
2018-07-01T13:20:38.795Z,52.20
2018-07-01T13:23:07.618Z,52.20
2018-07-01T13:25:36.488Z,52.40
2018-07-01T13:28:06.016Z,52.30
2018-07-01T13:30:34.890Z,52.40
2018-07-01T13:33:03.755Z,52.30
2018-07-01T13:35:32.622Z,52.40
2018-07-01T13:38:01.479Z,52.40
2018-07-01T13:40:30.330Z,52.40
2018-07-01T13:42:59.154Z,52.40
2018-07-01T13:45:27.990Z,52.40
2018-07-01T13:47:56.826Z,52.40
2018-07-01T13:50:25.668Z,52.50
2018-07-01T13:52:54.778Z,52.40
2018-07-01T13:55:23.649Z,52.50
2018-07-01T13:57:52.514Z,52.60
2018-07-01T14:00:21.363Z,52.50
2018-07-01T14:02:50.226Z,52.60
2018-07-01T14:05:19.051Z,52.60
2018-07-01T14:07:47.875Z,52.60
2018-07-01T14:12:45.206Z,52.60
2018-07-01T14:15:14.075Z,52.60
2018-07-01T14:17:42.899Z,52.60
2018-07-01T14:20:11.848Z,52.70
2018-07-01T14:22:40.795Z,52.70
2018-07-01T14:25:10.023Z,52.60
2018-07-01T14:27:39.391Z,52.60
2018-07-01T14:30:08.541Z,52.70
2018-07-01T14:32:37.507Z,52.70
2018-07-01T14:35:06.410Z,52.70
2018-07-01T14:37:35.354Z,52.80
2018-07-01T14:40:04.318Z,52.80
2018-07-01T14:42:33.171Z,52.80
2018-07-01T14:45:02.018Z,52.90
2018-07-01T14:47:30.842Z,52.70
2018-07-01T14:49:59.667Z,52.90
2018-07-01T14:52:28.722Z,52.80
2018-07-01T14:54:57.619Z,52.40
2018-07-01T14:57:26.386Z,52.90
2018-07-01T14:59:55.206Z,53.10
2018-07-01T15:02:24.043Z,53.20
2018-07-01T15:04:52.882Z,53.10
2018-07-01T15:07:21.715Z,53.30
2018-07-01T15:09:50.582Z,53.10
2018-07-01T15:12:19.428Z,53.30
2018-07-01T15:14:48.262Z,53.20
2018-07-01T15:17:17.114Z,53.30
2018-07-01T15:19:45.962Z,53.40
2018-07-01T15:22:14.816Z,53.40
2018-07-01T15:24:43.622Z,53.40
2018-07-01T15:27:12.538Z,53.50
2018-07-01T15:29:41.692Z,53.50
2018-07-01T15:32:10.524Z,53.70
2018-07-01T15:34:39.391Z,53.60
2018-07-01T15:37:08.315Z,53.70
2018-07-01T15:39:37.177Z,53.70
2018-07-01T15:42:06.014Z,53.60
2018-07-01T15:44:34.853Z,53.50
2018-07-01T15:47:03.730Z,53.90
2018-07-01T15:49:32.563Z,53.70
2018-07-01T15:54:29.949Z,53.80
2018-07-01T15:56:58.887Z,54.10
2018-07-01T15:59:27.746Z,53.80
2018-07-01T16:01:56.586Z,54.00
2018-07-01T16:04:25.610Z,54.00
2018-07-01T16:06:54.470Z,54.10
2018-07-01T16:09:23.295Z,54.00
2018-07-01T16:11:52.213Z,53.60
2018-07-01T16:14:20.957Z,53.60
2018-07-01T16:19:18.338Z,53.90
2018-07-01T16:21:47.180Z,53.90
2018-07-01T16:24:15.998Z,53.90
2018-07-01T16:26:50.236Z,54.00
2018-07-01T16:29:19.066Z,54.90
2018-07-01T16:31:47.899Z,53.90
2018-07-01T16:34:16.874Z,54.00
2018-07-01T16:39:14.242Z,54.30
2018-07-01T16:41:43.070Z,54.20
2018-07-01T16:44:11.950Z,54.20
2018-07-01T16:46:40.782Z,54.50
2018-07-01T16:49:09.642Z,54.60
2018-07-01T16:51:38.478Z,54.50
2018-07-01T16:54:07.314Z,54.10
2018-07-01T16:56:36.174Z,54.40
2018-07-01T16:59:05.022Z,54.30
2018-07-01T17:01:33.907Z,54.40
2018-07-01T17:04:02.733Z,54.50
2018-07-01T17:06:31.745Z,54.40
2018-07-01T17:09:00.815Z,54.50
2018-07-01T17:11:29.776Z,54.50
2018-07-01T17:13:58.943Z,54.00
2018-07-01T17:16:28.070Z,54.20
2018-07-01T17:18:57.093Z,54.10
2018-07-01T17:21:26.044Z,53.50
2018-07-01T17:23:54.900Z,53.50
2018-07-01T17:26:23.736Z,53.50
2018-07-01T17:28:52.582Z,53.30
2018-07-01T17:31:26.934Z,53.30
2018-07-01T17:33:55.765Z,53.10
2018-07-01T17:38:53.130Z,52.90
2018-07-01T17:41:21.986Z,52.50
2018-07-01T17:43:50.860Z,52.20
2018-07-01T17:46:19.693Z,51.60
2018-07-01T17:48:48.549Z,50.80
2018-07-01T17:51:17.371Z,49.80
2018-07-01T17:53:51.285Z,48.90
2018-07-01T17:56:20.102Z,48.10
2018-07-01T17:58:48.926Z,47.70
2018-07-01T18:01:17.962Z,47.80
2018-07-01T18:03:46.819Z,47.00
2018-07-01T18:06:15.646Z,46.90
2018-07-01T18:08:44.487Z,46.50
2018-07-01T18:11:13.330Z,46.20
2018-07-01T18:13:42.147Z,46.30
2018-07-01T18:16:10.978Z,46.10
2018-07-01T18:18:39.826Z,46.20
2018-07-01T18:21:08.699Z,45.60
2018-07-01T18:24:11.130Z,45.60
2018-07-01T18:26:06.374Z,45.60
2018-07-01T18:28:45.189Z,45.10
2018-07-01T18:31:04.050Z,45.40
2018-07-01T18:33:32.910Z,45.60
2018-07-01T18:36:01.758Z,45.70
2018-07-01T18:38:30.586Z,45.60
2018-07-01T18:40:59.461Z,45.40
2018-07-01T18:45:56.799Z,45.70
2018-07-01T18:48:25.625Z,45.80
2018-07-01T18:50:54.450Z,46.00
2018-07-01T18:53:23.347Z,46.20
2018-07-01T18:55:52.209Z,47.60
2018-07-01T18:58:21.051Z,48.50
2018-07-01T19:00:49.882Z,49.10
2018-07-01T19:03:20.596Z,49.50
2018-07-01T19:05:49.422Z,49.70
2018-07-01T19:08:18.269Z,50.10
2018-07-01T19:10:47.206Z,50.20
2018-07-01T19:13:16.082Z,50.60
2018-07-01T19:15:44.926Z,50.70
2018-07-01T19:18:13.841Z,45.10
2018-07-01T19:20:42.669Z,45.60
2018-07-01T19:23:11.533Z,43.00
2018-07-01T19:25:40.387Z,44.40
2018-07-01T19:28:09.334Z,43.80
2018-07-01T19:30:38.182Z,44.70
2018-07-01T19:33:07.062Z,44.00
2018-07-01T19:35:35.930Z,44.80
2018-07-01T19:38:04.953Z,44.80
2018-07-01T19:40:33.811Z,44.50
2018-07-01T19:43:02.832Z,44.70
2018-07-01T19:48:00.114Z,44.70
2018-07-01T19:50:29.867Z,45.00
2018-07-01T19:52:58.761Z,44.80
2018-07-01T19:55:27.627Z,45.40
2018-07-01T19:57:56.470Z,45.50
2018-07-01T20:02:53.807Z,46.20
2018-07-01T20:05:22.682Z,46.70
2018-07-01T20:07:51.518Z,46.70
2018-07-01T20:15:17.558Z,46.40
2018-07-01T20:17:46.516Z,46.60
2018-07-01T20:20:15.340Z,46.70
2018-07-01T20:22:44.158Z,46.40
2018-07-01T20:25:13.048Z,46.80
2018-07-01T20:27:41.928Z,47.10
2018-07-01T20:32:39.257Z,47.20
2018-07-01T20:35:08.143Z,47.50
2018-07-01T20:37:36.986Z,47.40
2018-07-01T20:40:05.862Z,47.50
2018-07-01T20:42:34.741Z,47.60
2018-07-01T20:45:03.535Z,47.60
2018-07-01T20:47:32.369Z,47.30
2018-07-01T20:50:01.358Z,47.10
2018-07-01T20:52:30.190Z,47.50
2018-07-01T20:54:59.118Z,46.80
2018-07-01T20:57:27.954Z,46.70
2018-07-01T20:59:56.823Z,47.30
2018-07-01T21:02:25.681Z,47.20
2018-07-01T21:04:54.502Z,45.90
2018-07-01T21:07:23.354Z,46.50
2018-07-01T21:09:52.170Z,47.10
2018-07-01T21:12:21.022Z,47.60
2018-07-01T21:14:49.866Z,47.00
2018-07-01T21:17:18.738Z,46.60
2018-07-01T21:19:47.642Z,47.20
2018-07-01T21:22:16.460Z,46.30
2018-07-01T21:24:45.383Z,46.80
2018-07-01T21:27:14.606Z,46.60
2018-07-01T21:29:43.638Z,46.80
2018-07-01T21:32:12.498Z,46.70
2018-07-01T21:34:41.382Z,47.00
2018-07-01T21:37:10.214Z,46.60
2018-07-01T21:39:39.074Z,47.80
2018-07-01T21:42:07.898Z,46.70
2018-07-01T21:44:36.722Z,46.80
2018-07-01T21:47:05.629Z,47.30
2018-07-01T21:49:34.500Z,47.60
2018-07-01T21:52:03.449Z,47.60
2018-07-01T21:54:32.359Z,47.80
2018-07-01T21:57:01.228Z,49.00
2018-07-01T21:59:30.079Z,48.60
2018-07-01T22:01:59.037Z,48.40
2018-07-01T22:04:28.061Z,48.50
2018-07-01T22:06:58.762Z,48.50
2018-07-01T22:09:28.194Z,48.70
2018-07-01T22:12:08.828Z,48.90
2018-07-01T22:14:49.030Z,49.20
2018-07-01T22:17:17.896Z,49.40
2018-07-01T22:19:46.737Z,50.40
2018-07-01T22:22:15.650Z,50.00
2018-07-01T22:24:44.525Z,50.10
2018-07-01T22:27:13.429Z,50.30
2018-07-01T22:29:42.262Z,50.50
2018-07-01T22:32:11.141Z,50.60
2018-07-01T22:34:39.990Z,50.60
2018-07-01T22:37:09.944Z,50.70
2018-07-01T22:39:38.838Z,51.40
2018-07-01T22:42:07.852Z,50.90
2018-07-01T22:44:36.742Z,50.90
2018-07-01T22:47:05.658Z,50.90
2018-07-01T22:49:34.538Z,51.10
2018-07-01T22:52:03.434Z,51.00
2018-07-01T22:54:32.263Z,51.00
2018-07-01T22:57:01.189Z,51.00
2018-07-01T22:59:30.103Z,51.00
2018-07-01T23:03:12.835Z,51.00
2018-07-01T23:05:42.410Z,51.00
2018-07-01T23:08:11.296Z,51.00
2018-07-01T23:10:40.189Z,50.90
2018-07-01T23:13:09.176Z,50.90
2018-07-01T23:15:38.065Z,50.90
2018-07-01T23:18:07.042Z,50.90
2018-07-01T23:20:35.926Z,50.90
2018-07-01T23:23:04.839Z,50.80
2018-07-01T23:25:33.778Z,50.90
2018-07-01T23:28:02.642Z,50.90
2018-07-01T23:30:31.554Z,51.00
2018-07-01T23:33:00.453Z,50.90
2018-07-01T23:35:29.313Z,51.00
2018-07-01T23:37:58.562Z,51.00
2018-07-01T23:40:27.435Z,50.90
2018-07-01T23:42:56.304Z,50.90
2018-07-01T23:45:25.184Z,50.90
2018-07-01T23:47:54.050Z,50.90
2018-07-01T23:52:51.499Z,51.70
2018-07-01T23:55:20.342Z,51.00
2018-07-01T23:57:49.211Z,51.10
